Time;durP1;ratioP1;P1;durP2;ratioP2;P2;SDS_P1;SDS_P2;PMS_P1;PMS_P2;Temp;Humidity;BMP_temperature;BMP_pressure;BME280_temperature;BME280_humidity;BME280_pressure;Samples;Min_cycle;Max_cycle;Signal;HPM_P1;HPM_P2
2022/11/17 00:01:59;;;;;;;17.35;10.75;;;;;;;8.95;100.00;98743.45;1747674;81;21227;-79
2022/11/17 00:05:05;;;;;;;19.48;13.05;;;;;;;8.96;100.00;98739.66;1747762;82;21267;-79
2022/11/17 00:08:11;;;;;;;17.27;12.75;;;;;;;9.23;100.00;98731.58;1749415;82;21185;-79
2022/11/17 00:11:18;;;;;;;15.85;11.33;;;;;;;9.09;100.00;98736.16;1749052;82;21192;-78
2022/11/17 00:14:35;;;;;;;17.35;12.20;;;;;;;9.02;100.00;98731.19;1748357;82;21738;-79
2022/11/17 00:17:42;;;;;;;19.20;11.00;;;;;;;8.99;100.00;98715.25;1744199;81;21227;-78
2022/11/17 00:24:12;;;;;;;17.12;12.58;;;;;;;9.12;100.00;98709.81;1735889;82;21267;-78
2022/11/17 00:27:18;;;;;;;15.85;11.90;;;;;;;9.07;100.00;98708.22;1736403;82;21196;-78
2022/11/17 00:34:05;;;;;;;26.65;13.85;;;;;;;9.17;100.00;98690.09;1695242;84;21897;-78
2022/11/17 00:37:12;;;;;;;21.68;13.62;;;;;;;9.37;100.00;98689.63;1736295;82;21200;-79
2022/11/17 00:40:18;;;;;;;16.97;11.83;;;;;;;9.30;100.00;98692.86;1735095;82;21221;-79
2022/11/17 00:43:25;;;;;;;21.77;13.18;;;;;;;9.37;100.00;98696.98;1735012;82;21200;-78
2022/11/17 00:46:31;;;;;;;23.87;16.17;;;;;;;9.39;100.00;98697.06;1735839;81;21220;-78
2022/11/17 00:49:37;;;;;;;23.60;15.20;;;;;;;9.42;100.00;98691.73;1736361;82;21176;-78
2022/11/17 00:52:42;;;;;;;20.27;13.58;;;;;;;9.56;100.00;98692.59;1736326;82;21168;-78
2022/11/17 00:55:46;;;;;;;21.55;14.78;;;;;;;9.41;100.00;98689.53;1735007;82;21323;-78
2022/11/17 00:58:52;;;;;;;24.43;14.30;;;;;;;9.39;100.00;98692.98;1736346;82;21797;-79
2022/11/17 01:01:59;;;;;;;18.77;13.20;;;;;;;9.41;100.00;98684.57;1735746;82;21263;-79
2022/11/17 01:05:04;;;;;;;19.32;14.07;;;;;;;9.51;100.00;98685.02;1735555;82;21806;-78
2022/11/17 01:08:11;;;;;;;18.95;13.45;;;;;;;9.44;100.00;98690.46;1734981;82;21758;-78
2022/11/17 01:11:21;;;;;;;16.93;11.93;;;;;;;9.33;100.00;98679.34;1736347;82;21188;-78
2022/11/17 01:14:34;;;;;;;16.82;12.07;;;;;;;9.32;100.00;98678.50;1736133;82;21790;-79
2022/11/17 01:17:41;;;;;;;16.15;12.10;;;;;;;9.37;100.00;98686.90;1735449;82;22710;-78
2022/11/17 01:20:47;;;;;;;17.87;12.70;;;;;;;9.33;100.00;98681.54;1760788;81;21723;-79
2022/11/17 08:39:26;;;;;;;33.08;18.23;;;;;;;9.12;100.00;98674.34;1782501;79;21888;-76
2022/11/17 08:43:00;;;;;;;40.83;20.40;;;;;;;9.04;100.00;98671.00;1775464;79;21309;-76
2022/11/17 08:46:06;;;;;;;31.60;17.23;;;;;;;9.21;100.00;98671.75;1771559;80;21207;-77
2022/11/17 08:49:12;;;;;;;27.30;14.43;;;;;;;9.23;100.00;98679.74;1767377;80;21239;-77
2022/11/17 08:52:18;;;;;;;37.10;19.55;;;;;;;9.31;100.00;98675.43;1763748;80;21222;-77
2022/11/17 08:55:25;;;;;;;34.40;17.45;;;;;;;9.18;100.00;98671.34;1785207;78;21410;-77
2022/11/17 08:58:32;;;;;;;29.82;17.02;;;;;;;9.17;100.00;98669.64;1760366;79;21238;-75
2022/11/17 09:01:39;;;;;;;30.50;16.65;;;;;;;9.24;100.00;98661.48;1753822;79;21262;-76
2022/11/17 09:04:45;;;;;;;34.03;19.12;;;;;;;9.09;100.00;98665.23;1768027;77;21311;-76
2022/11/17 09:07:52;;;;;;;33.65;18.95;;;;;;;9.16;100.00;98670.69;1758270;79;21174;-76
2022/11/17 09:11:00;;;;;;;33.90;19.37;;;;;;;9.41;100.00;98671.80;1780613;79;21209;-76
2022/11/17 09:14:06;;;;;;;25.52;15.98;;;;;;;9.62;100.00;98664.44;1757961;80;21218;-77
2022/11/17 09:17:13;;;;;;;28.57;18.12;;;;;;;9.77;100.00;98669.69;1733483;80;174534;-77
2022/11/17 09:20:19;;;;;;;26.57;16.17;;;;;;;9.96;100.00;98677.85;1794876;79;21222;-76
2022/11/17 09:23:25;;;;;;;26.50;15.23;;;;;;;10.04;100.00;98675.44;1793800;79;21277;-76
2022/11/17 09:26:32;;;;;;;21.57;13.50;;;;;;;10.32;100.00;98662.06;1785224;79;21199;-75
2022/11/17 09:29:38;;;;;;;19.42;12.03;;;;;;;10.30;100.00;98664.99;1762286;79;21342;-76
2022/11/17 09:32:46;;;;;;;15.80;11.50;;;;;;;10.52;100.00;98664.73;1750933;80;21293;-76
2022/11/17 09:35:51;;;;;;;15.98;10.85;;;;;;;10.56;100.00;98660.52;1732618;80;21286;-76
2022/11/17 09:38:57;;;;;;;14.18;10.03;;;;;;;10.14;100.00;98668.17;1752571;80;21227;-76
2022/11/17 09:42:03;;;;;;;12.98;7.83;;;;;;;10.02;100.00;98668.49;1773002;79;21236;-75
2022/11/17 09:45:12;;;;;;;11.45;6.65;;;;;;;10.19;100.00;98665.63;1778104;79;21245;-77
2022/11/17 09:48:24;;;;;;;10.10;5.83;;;;;;;10.20;100.00;98659.95;1771860;79;21785;-77
2022/11/17 09:51:31;;;;;;;11.93;5.55;;;;;;;10.35;100.00;98667.08;1763523;79;21344;-76
2022/11/17 09:54:50;;;;;;;7.67;5.12;;;;;;;10.63;100.00;98666.78;1780562;78;21220;-77
2022/11/17 09:57:59;;;;;;;9.08;5.95;;;;;;;10.51;100.00;98671.26;1733451;80;21239;-76
2022/11/17 10:01:04;;;;;;;7.47;4.95;;;;;;;10.58;100.00;98669.32;1775070;79;21222;-76
2022/11/17 10:04:17;;;;;;;5.95;4.10;;;;;;;10.48;100.00;98661.05;1747120;80;21226;-77
2022/11/17 10:07:23;;;;;;;6.70;3.98;;;;;;;10.37;100.00;98664.46;1792005;79;21188;-76
2022/11/17 10:10:47;;;;;;;3.95;3.25;;;;;;;10.23;100.00;98670.98;1803152;79;21825;-76
2022/11/17 10:13:54;;;;;;;5.60;3.50;;;;;;;10.17;100.00;98660.39;1755051;80;21372;-77
2022/11/17 10:17:05;;;;;;;3.62;2.50;;;;;;;10.15;100.00;98673.94;1778348;79;21184;-77
2022/11/17 10:20:17;;;;;;;4.28;2.80;;;;;;;10.27;100.00;98683.73;1748010;80;21257;-76
2022/11/17 10:23:25;;;;;;;4.08;2.67;;;;;;;9.98;100.00;98678.50;1776975;79;21429;-76
2022/11/17 10:26:30;;;;;;;2.65;2.12;;;;;;;10.06;100.00;98675.22;1772988;78;21226;-77
2022/11/17 10:29:37;;;;;;;4.12;2.50;;;;;;;10.10;100.00;98677.84;1761047;79;21497;-76
2022/11/17 13:50:36;;;;;;;13.32;10.28;;;;;;;9.44;99.40;98597.67;1765945;79;28667;-86
2022/11/17 13:53:43;;;;;;;13.93;10.53;;;;;;;9.68;95.74;98600.80;1725596;82;22224;-84
2022/11/17 13:56:56;;;;;;;13.58;10.40;;;;;;;8.81;97.70;98598.58;1741648;82;21751;-78
2022/11/17 14:00:03;;;;;;;10.48;8.65;;;;;;;8.45;98.73;98594.27;1733191;81;21188;-86
2022/11/17 14:03:11;;;;;;;12.68;8.03;;;;;;;8.67;99.48;98588.16;1733925;83;21266;-77
2022/11/17 14:06:19;;;;;;;8.03;6.47;;;;;;;8.78;97.25;98576.33;1732843;82;21756;-85
2022/11/17 14:09:25;;;;;;;11.88;7.90;;;;;;;8.70;97.45;98582.31;1733190;81;21771;-76
2022/11/17 14:12:31;;;;;;;11.90;8.43;;;;;;;8.08;100.00;98590.10;1719805;83;21158;-84
2022/11/17 14:15:40;;;;;;;12.82;9.93;;;;;;;8.76;97.77;98590.70;1732811;81;21211;-77
2022/11/17 14:18:46;;;;;;;;;;;;;;;8.41;96.15;98590.80;1736229;81;21741;-85
2022/11/17 14:22:11;;;;;;;13.13;8.28;;;;;;;7.89;99.45;98592.20;1733970;83;20193;-85
2022/11/17 14:25:20;;;;;;;11.88;7.95;;;;;;;7.52;100.00;98589.34;1732500;81;21271;-76
2022/11/17 14:28:27;;;;;;;11.15;7.95;;;;;;;7.63;100.00;98584.21;1733823;81;21772;-86
2022/11/17 14:31:33;;;;;;;12.98;7.75;;;;;;;7.93;100.00;98583.95;1734157;83;21183;-77
2022/11/17 14:34:39;;;;;;;9.03;6.87;;;;;;;8.02;100.00;98585.47;1733245;81;21176;-77
2022/11/17 14:37:45;;;;;;;10.18;6.60;;;;;;;7.94;100.00;98581.55;1732968;83;21752;-77
2022/11/17 14:40:52;;;;;;;7.85;6.47;;;;;;;7.48;100.00;98575.81;1732626;83;21602;-76
2022/11/17 14:43:57;;;;;;;12.45;8.48;;;;;;;7.12;100.00;98568.66;1733638;81;21258;-87
2022/11/17 14:47:03;;;;;;;11.55;7.37;;;;;;;7.46;100.00;98558.86;1732829;82;21176;-77
2022/11/17 14:50:10;;;;;;;14.07;7.58;;;;;;;7.59;100.00;98548.08;1739715;81;21200;-77
2022/11/17 14:53:15;;;;;;;9.70;7.22;;;;;;;7.82;100.00;98547.79;1746640;80;21163;-78
2022/11/17 14:56:25;;;;;;;9.40;7.25;;;;;;;7.60;100.00;98541.59;1740041;80;21739;-78
2022/11/17 14:59:34;;;;;;;8.73;6.92;;;;;;;7.85;100.00;98531.87;1742582;80;21164;-88
2022/11/17 15:02:42;;;;;;;16.37;8.78;;;;;;;7.83;100.00;98526.33;1718252;83;21748;-76
2022/11/17 15:05:52;;;;;;;9.95;7.97;;;;;;;8.03;100.00;98516.88;1718923;83;21839;-86
2022/11/17 15:09:05;;;;;;;10.30;7.53;;;;;;;7.56;100.00;98520.73;1718844;82;21291;-76
2022/11/17 15:12:10;;;;;;;107.05;59.48;;;;;;;7.74;100.00;98513.92;1719680;83;21188;-76
2022/11/17 15:15:17;;;;;;;23.07;15.03;;;;;;;7.44;100.00;98516.91;1719068;82;21191;-87
2022/11/17 15:18:22;;;;;;;16.25;11.35;;;;;;;7.53;100.00;98512.13;1718522;82;21188;-76
2022/11/17 15:21:28;;;;;;;33.38;14.70;;;;;;;7.23;100.00;98512.88;1719302;83;21187;-86
2022/11/17 15:24:34;;;;;;;37.05;20.27;;;;;;;7.41;100.00;98507.78;1717835;82;21211;-84
2022/11/17 15:27:39;;;;;;;40.58;22.58;;;;;;;7.32;100.00;98503.02;1719112;81;21768;-76
2022/11/17 15:30:45;;;;;;;41.65;24.55;;;;;;;7.34;100.00;98491.92;1717685;82;21220;-76
2022/11/17 15:33:52;;;;;;;39.42;23.35;;;;;;;7.58;100.00;98491.98;1719589;82;21225;-86
2022/11/17 15:36:58;;;;;;;38.60;23.52;;;;;;;7.68;100.00;98488.37;1720344;83;21176;-77
2022/11/17 15:40:04;;;;;;;42.33;24.45;;;;;;;7.82;100.00;98471.05;1719317;82;21784;-86
2022/11/17 15:43:12;;;;;;;41.10;22.20;;;;;;;7.96;100.00;98472.47;1720204;83;21228;-76
2022/11/17 15:46:21;;;;;;;39.58;23.83;;;;;;;7.80;100.00;98466.84;1720149;83;21215;-82
2022/11/17 15:49:26;;;;;;;44.80;26.70;;;;;;;7.80;100.00;98467.67;1720364;82;21204;-85
2022/11/17 15:52:32;;;;;;;47.78;27.70;;;;;;;7.72;100.00;98464.31;1718048;83;21212;-85
2022/11/17 15:55:40;;;;;;;40.33;24.75;;;;;;;7.93;100.00;98463.64;1718082;82;21240;-76
2022/11/17 15:58:39;;;;;;;42.60;26.27;;;;;;;8.01;100.00;98461.80;1720294;82;21185;-85
2022/11/17 16:01:45;;;;;;;29.92;19.70;;;;;;;7.88;100.00;98452.53;1718645;83;21236;-85
2022/11/17 16:04:51;;;;;;;36.35;22.45;;;;;;;7.77;100.00;98450.94;1719427;82;21188;-85
2022/11/17 16:07:57;;;;;;;33.83;20.05;;;;;;;7.89;100.00;98455.56;1718808;83;21725;-84
2022/11/17 16:11:02;;;;;;;34.18;22.22;;;;;;;7.99;100.00;98458.42;1719052;83;21247;-85
2022/11/17 16:14:08;;;;;;;39.15;25.45;;;;;;;8.10;100.00;98460.58;1719892;82;21201;-86
2022/11/17 16:17:07;;;;;;;49.00;28.83;;;;;;;7.94;99.42;98440.81;1720771;83;21164;-76
2022/11/17 16:20:17;;;;;;;51.58;30.80;;;;;;;8.02;99.43;98446.61;1719155;82;21725;-78
2022/11/17 16:23:23;;;;;;;46.83;26.68;;;;;;;7.92;100.00;98448.89;1720225;82;21804;-85
2022/11/17 16:26:31;;;;;;;35.38;23.38;;;;;;;7.97;99.08;98456.44;1720275;83;21251;-82
2022/11/17 16:29:36;;;;;;;41.83;25.32;;;;;;;7.76;99.54;98449.23;1720325;82;21240;-76
2022/11/17 16:32:42;;;;;;;44.50;25.48;;;;;;;7.75;100.00;98429.87;1720296;83;21160;-85
2022/11/17 16:35:48;;;;;;;33.67;24.05;;;;;;;7.19;100.00;98430.86;1719209;83;21738;-77
2022/11/17 16:39:02;;;;;;;40.52;23.38;;;;;;;7.05;100.00;98421.78;1726398;81;21230;-85
2022/11/17 16:42:08;;;;;;;38.23;23.95;;;;;;;6.74;100.00;98410.51;1692757;85;21226;-85
2022/11/17 16:45:14;;;;;;;42.05;25.97;;;;;;;6.66;100.00;98390.59;1714517;82;21228;-77
2022/11/17 16:48:20;;;;;;;30.65;19.60;;;;;;;6.75;100.00;98395.88;1703445;83;21202;-77
2022/11/17 16:51:25;;;;;;;25.15;17.30;;;;;;;6.85;100.00;98395.84;1721250;83;21200;-84
2022/11/17 16:54:31;;;;;;;22.62;14.25;;;;;;;6.99;100.00;98375.02;1699746;83;21209;-77
2022/11/17 16:57:37;;;;;;;18.67;12.90;;;;;;;6.98;100.00;98375.23;1743573;82;21174;-76
2022/11/17 17:00:43;;;;;;;13.32;10.25;;;;;;;6.96;100.00;98380.84;1722846;82;21184;-76
2022/11/17 17:03:50;;;;;;;11.33;8.73;;;;;;;6.94;100.00;98387.53;1724128;82;21212;-85
2022/11/17 17:06:57;;;;;;;10.20;7.20;;;;;;;6.86;100.00;98368.97;1723484;83;21749;-87
2022/11/17 17:10:02;;;;;;;8.65;6.08;;;;;;;6.73;100.00;98358.05;1723053;82;21800;-84
2022/11/17 17:13:08;;;;;;;10.32;7.42;;;;;;;6.83;100.00;98366.67;1724099;83;21180;-86
2022/11/17 17:16:15;;;;;;;7.05;5.72;;;;;;;6.85;100.00;98361.03;1724077;83;21184;-77
2022/11/17 17:19:22;;;;;;;7.83;6.20;;;;;;;6.96;100.00;98367.25;1723612;82;21276;-85
2022/11/17 17:22:27;;;;;;;8.63;4.92;;;;;;;6.74;100.00;98358.88;1722554;83;21251;-76
2022/11/17 17:25:33;;;;;;;6.45;4.90;;;;;;;6.65;100.00;98358.20;1722788;82;21259;-77
2022/11/17 17:28:43;;;;;;;7.15;5.47;;;;;;;6.57;100.00;98348.30;1724087;82;21772;-77
2022/11/17 17:31:48;;;;;;;10.58;6.25;;;;;;;6.52;100.00;98348.59;1723671;83;21232;-83
2022/11/17 17:34:55;;;;;;;6.20;4.72;;;;;;;6.58;100.00;98338.28;1722638;82;21267;-77
2022/11/17 17:38:00;;;;;;;5.53;4.00;;;;;;;6.25;100.00;98325.30;1722810;83;21784;-78
2022/11/17 17:41:21;;;;;;;7.30;5.22;;;;;;;6.60;100.00;98311.25;1724061;83;21176;-77
2022/11/17 17:44:27;;;;;;;5.75;4.53;;;;;;;6.31;100.00;98294.66;1723778;82;21208;-85
2022/11/17 17:47:33;;;;;;;5.35;3.95;;;;;;;6.23;100.00;98290.73;1723997;83;21173;-77
2022/11/17 17:50:39;;;;;;;4.22;3.27;;;;;;;6.71;100.00;98293.54;1722702;82;21208;-85
2022/11/17 17:53:44;;;;;;;6.42;5.55;;;;;;;6.80;100.00;98295.05;1727632;81;21220;-77
2022/11/17 17:56:51;;;;;;;6.97;4.62;;;;;;;6.87;99.55;98288.31;1730360;82;21184;-85
2022/11/17 17:59:58;;;;;;;4.97;4.08;;;;;;;6.57;100.00;98274.97;1730827;81;21740;-85
2022/11/17 18:03:04;;;;;;;5.37;4.15;;;;;;;6.34;100.00;98267.61;1730465;83;21470;-77
2022/11/17 18:06:10;;;;;;;4.15;3.40;;;;;;;6.33;100.00;98252.37;1711265;83;21776;-77
2022/11/17 18:09:21;;;;;;;5.55;3.77;;;;;;;6.53;100.00;98244.33;1730977;81;21207;-84
2022/11/17 18:12:25;;;;;;;4.72;3.37;;;;;;;6.25;100.00;98235.70;1730315;83;21724;-77
2022/11/17 18:15:30;;;;;;;5.00;3.25;;;;;;;6.13;100.00;98242.73;1730578;81;21243;-77
2022/11/17 18:18:36;;;;;;;5.70;4.78;;;;;;;6.06;100.00;98230.45;1731586;81;21176;-84
2022/11/17 18:21:42;;;;;;;3.98;3.50;;;;;;;5.99;100.00;98217.37;1731549;83;21800;-76
2022/11/17 18:24:41;;;;;;;3.20;2.90;;;;;;;6.14;100.00;98214.55;1730546;81;21207;-77
2022/11/17 18:27:33;;;;;;;3.27;2.30;;;;;;;6.39;100.00;98233.38;1730228;83;21173;-77
2022/11/17 18:30:38;;;;;;;3.22;2.80;;;;;;;6.09;100.00;98253.67;1730383;81;21255;-77
2022/11/17 18:33:48;;;;;;;4.87;3.30;;;;;;;5.94;100.00;98239.36;1709958;81;21244;-83
2022/11/17 18:36:52;;;;;;;4.42;4.00;;;;;;;5.83;100.00;98232.05;1731856;83;21180;-81
2022/11/17 18:39:58;;;;;;;4.42;3.52;;;;;;;5.96;100.00;98223.19;1730233;81;21243;-77
2022/11/17 18:43:05;;;;;;;5.50;2.42;;;;;;;5.97;100.00;98215.88;1730669;83;21184;-76
2022/11/17 18:46:16;;;;;;;3.52;2.92;;;;;;;5.98;100.00;98203.49;1731626;83;21172;-83
2022/11/17 18:49:22;;;;;;;3.47;2.20;;;;;;;6.14;100.00;98198.27;1731322;81;21243;-78
2022/11/17 18:52:28;;;;;;;2.00;1.80;;;;;;;6.28;100.00;98193.75;1731449;83;21183;-78
2022/11/17 18:55:34;;;;;;;3.33;2.17;;;;;;;6.24;99.67;98191.12;1730073;81;21234;-78
2022/11/17 18:58:40;;;;;;;2.12;1.90;;;;;;;6.12;99.21;98188.14;1731398;81;21806;-77
2022/11/17 19:01:48;;;;;;;4.75;4.15;;;;;;;6.15;99.18;98180.41;1731639;83;21180;-83
2022/11/17 19:04:55;;;;;;;3.50;2.62;;;;;;;6.12;99.17;98170.50;1730857;81;21244;-83
2022/11/17 19:08:01;;;;;;;2.65;2.35;;;;;;;5.99;99.21;98150.05;1731590;83;21204;-78
2022/11/17 19:11:07;;;;;;;3.05;2.55;;;;;;;5.86;99.34;98139.39;1731638;83;21753;-84
2022/11/17 19:14:13;;;;;;;3.05;1.92;;;;;;;5.93;98.75;98134.06;1730219;81;21231;-85
2022/11/17 22:18:45;;;;;;;11.30;8.65;;;;;;;2.95;100.00;98091.32;1782413;79;28402;-84
2022/11/17 22:21:50;;;;;;;14.23;8.88;;;;;;;2.62;100.00;98092.09;1776945;80;21203;-77
2022/11/17 22:24:56;;;;;;;14.25;10.98;;;;;;;2.55;100.00;98097.38;1776872;80;21216;-83
2022/11/17 22:28:04;;;;;;;15.28;7.97;;;;;;;2.55;100.00;98113.57;1776331;80;21156;-83
2022/11/17 22:31:15;;;;;;;16.02;9.10;;;;;;;2.82;100.00;98112.17;1786214;80;21151;-84
2022/11/17 22:34:20;;;;;;;;;;;;;;;2.72;100.00;98119.16;1788910;80;21144;-77
2022/11/17 22:37:26;;;;;;;9.78;8.40;;;;;;;2.55;100.00;98105.47;1772411;81;20179;-83
2022/11/17 22:40:33;;;;;;;11.93;8.78;;;;;;;2.54;100.00;98099.23;1786229;80;21191;-78
2022/11/17 22:43:39;;;;;;;13.13;8.40;;;;;;;2.57;100.00;98114.22;1784936;80;21176;-84
2022/11/17 22:46:45;;;;;;;17.00;9.60;;;;;;;2.66;100.00;98117.19;1751957;82;21196;-77
2022/11/17 22:49:51;;;;;;;13.70;8.83;;;;;;;3.07;100.00;98122.29;1771743;81;21145;-84
2022/11/17 22:52:52;;;;;;;14.50;10.08;;;;;;;2.95;100.00;98133.18;1785390;80;21728;-77
2022/11/17 22:55:57;;;;;;;17.12;10.50;;;;;;;2.85;100.00;98140.69;1785959;80;21725;-84
2022/11/17 22:59:03;;;;;;;16.93;9.78;;;;;;;2.95;100.00;98166.94;1784658;80;21760;-78
2022/11/17 23:02:09;;;;;;;16.42;11.08;;;;;;;3.19;100.00;98159.14;1753256;80;21725;-84
2022/11/17 23:05:13;;;;;;;15.40;11.83;;;;;;;3.07;100.00;98166.34;1773175;81;21176;-77
2022/11/17 23:08:20;;;;;;;14.33;10.40;;;;;;;3.30;100.00;98182.54;1785204;80;21172;-84
2022/11/17 23:11:25;;;;;;;14.43;11.55;;;;;;;3.41;100.00;98162.85;1786246;80;21725;-83
2022/11/17 23:14:32;;;;;;;15.00;11.57;;;;;;;3.47;100.00;98165.65;1722703;83;21173;-84
2022/11/17 23:17:38;;;;;;;11.38;8.15;;;;;;;2.62;100.00;98180.64;1753250;81;21557;-84
2022/11/17 23:20:44;;;;;;;10.95;8.58;;;;;;;3.06;100.00;98201.65;1719787;83;21212;-84
2022/11/17 23:23:49;;;;;;;12.82;9.05;;;;;;;3.09;100.00;98198.56;1721533;83;21215;-77
2022/11/17 23:26:55;;;;;;;9.13;7.47;;;;;;;2.92;100.00;98201.91;1725417;82;21228;-77
2022/11/17 23:30:01;;;;;;;10.18;8.13;;;;;;;3.17;100.00;98217.42;1750691;82;21781;-80
2022/11/17 23:33:07;;;;;;;12.00;8.15;;;;;;;2.98;100.00;98228.70;1750326;82;21211;-84
2022/11/17 23:36:35;;;;;;;12.35;7.08;;;;;;;2.85;100.00;98235.19;1753860;82;21712;-77
2022/11/17 23:39:43;;;;;;;16.80;9.13;;;;;;;3.03;100.00;98241.16;1619152;88;21250;-83
2022/11/17 23:42:50;;;;;;;13.10;10.05;;;;;;;2.83;100.00;98248.87;1618637;87;21247;-78
2022/11/17 23:45:56;;;;;;;13.22;10.13;;;;;;;2.80;100.00;98254.11;1619179;88;21227;-78
2022/11/17 23:48:57;;;;;;;13.80;10.23;;;;;;;2.92;100.00;98272.63;1617890;87;21333;-85
2022/11/17 23:52:03;;;;;;;15.13;11.43;;;;;;;3.48;100.00;98270.55;1618929;87;21194;-77
2022/11/17 23:55:09;;;;;;;13.68;11.35;;;;;;;3.29;100.00;98272.73;1619149;88;21158;-80
2022/11/17 23:58:14;;;;;;;21.42;13.83;;;;;;;3.29;100.00;98279.97;1618315;87;21186;-77
